KCFV/CFV METAR and TAF weather

Enter ICAO airport designator
Station Type Date Time Source
KCFV METAR 2020/07/12 19:52 UTC NOAA

KCFV 121952Z AUTO 35006KT 10SM CLR 32/16 A2993 RMK AO2 SLP128 T03220156


Station Type Date Time Source
KCFV Decoded METAR 2020/07/12 19:52 UTC NOAA

COFFEYVILLE MUNICIPAL AIRPORT , KS, United States (KCFV) 37-05N 95-34W 225M
Jul 12, 2020 - 03:52 PM EDT / 2020.07.12 1952 UTC
Wind: from the N (350 degrees) at 7 MPH (6 KT):0
Visibility: 10 mile(s):0
Sky conditions: clear
Temperature: 90.0 F (32.2 C)
Dew Point: 60.1 F (15.6 C)
Relative Humidity: 36%
Pressure (altimeter): 29.93 in. Hg (1013 hPa)
ob: KCFV 121952Z AUTO 35006KT 10SM CLR 32/16 A2993 RMK AO2 SLP128 T03220156
cycle: 20

Station Type Date Time Source
KCFV TAF UTC NOAA

Error!

Example: see airport list